Time;durP1;ratioP1;P1;durP2;ratioP2;P2;SDS_P1;SDS_P2;PMS_P1;PMS_P2;Temp;Humidity;BMP_temperature;BMP_pressure;BME280_temperature;BME280_humidity;BME280_pressure;Samples;Min_cycle;Max_cycle;Signal;HPM_P1;HPM_P2
2022/07/12 00:01:48;;;;;;;2.50;2.30;;;;;;;15.30;100.00;100848.47;4966132;28;20968;-74
2022/07/12 00:04:13;;;;;;;2.57;2.37;;;;;;;15.30;100.00;100841.50;4976455;28;20247;-74
2022/07/12 00:06:38;;;;;;;3.03;2.77;;;;;;;15.23;100.00;100847.19;4988260;28;20200;-74
2022/07/12 00:09:04;;;;;;;2.80;2.60;;;;;;;15.23;100.00;100840.25;4974317;28;20346;-74
2022/07/12 00:11:30;;;;;;;2.80;2.57;;;;;;;15.15;100.00;100845.06;4966454;28;20231;-73
2022/07/12 00:13:56;;;;;;;3.13;2.60;;;;;;;15.09;100.00;100845.44;4978285;28;20180;-74
2022/07/12 00:16:22;;;;;;;2.83;2.53;;;;;;;15.08;100.00;100838.59;4974306;28;20188;-74
2022/07/12 00:18:48;;;;;;;2.50;2.30;;;;;;;15.04;100.00;100844.91;4973556;28;20184;-74
2022/07/12 00:21:14;;;;;;;3.10;2.70;;;;;;;14.96;100.00;100846.22;4973174;28;20246;-74
2022/07/12 00:23:39;;;;;;;2.70;2.50;;;;;;;14.92;100.00;100849.91;4972612;28;20635;-74
2022/07/12 00:26:05;;;;;;;3.20;2.90;;;;;;;14.85;100.00;100839.09;4972608;28;20187;-73
2022/07/12 00:28:31;;;;;;;2.27;2.10;;;;;;;14.82;100.00;100841.88;4972419;28;20216;-73
2022/07/12 00:30:57;;;;;;;3.60;2.67;;;;;;;14.88;100.00;100840.66;4965278;28;20226;-73
2022/07/12 00:33:23;;;;;;;3.43;2.50;;;;;;;14.80;100.00;100842.91;4970009;28;20208;-74
2022/07/12 00:35:48;;;;;;;2.40;2.20;;;;;;;14.77;100.00;100838.72;4973849;28;20536;-74
2022/07/12 00:38:13;;;;;;;2.20;2.10;;;;;;;14.72;100.00;100838.16;4970688;28;20191;-74
2022/07/12 00:40:39;;;;;;;2.57;2.37;;;;;;;14.72;100.00;100837.34;4974748;28;20235;-73
2022/07/12 00:43:04;;;;;;;2.40;2.20;;;;;;;14.67;100.00;100827.25;4980739;28;20195;-73
2022/07/12 00:45:29;;;;;;;3.67;2.40;;;;;;;14.66;100.00;100833.34;4973730;28;20224;-74
2022/07/12 00:47:55;;;;;;;2.63;2.30;;;;;;;14.60;100.00;100823.31;4970724;28;20679;-74
2022/07/12 00:50:22;;;;;;;4.97;2.20;;;;;;;14.59;100.00;100824.28;4965432;28;20183;-73
2022/07/12 00:52:50;;;;;;;2.90;2.70;;;;;;;14.55;100.00;100826.22;4985945;28;20192;-74
2022/07/12 00:55:17;;;;;;;2.60;2.40;;;;;;;14.52;100.00;100827.22;4973354;28;20184;-74
2022/07/12 00:57:43;;;;;;;3.10;2.40;;;;;;;14.43;100.00;100821.75;4971843;28;20662;-74
2022/07/12 01:00:12;;;;;;;2.97;2.40;;;;;;;14.41;100.00;100821.81;4963282;28;20231;-74
2022/07/12 01:02:38;;;;;;;4.10;2.53;;;;;;;14.37;100.00;100822.94;4987769;28;20191;-74
2022/07/12 01:05:05;;;;;;;5.77;2.47;;;;;;;14.38;100.00;100821.22;4986721;28;20744;-74
2022/07/12 01:07:31;;;;;;;2.50;2.30;;;;;;;14.30;100.00;100825.06;4956944;28;20203;-74
2022/07/12 01:09:56;;;;;;;2.40;2.20;;;;;;;14.30;100.00;100819.03;4981658;28;20184;-74
2022/07/12 01:12:24;;;;;;;2.80;2.60;;;;;;;14.09;100.00;100811.63;4977604;28;20784;-73
2022/07/12 01:14:50;;;;;;;2.80;2.40;;;;;;;14.04;100.00;100814.47;4972134;28;20176;-74
2022/07/12 01:17:19;;;;;;;2.50;2.30;;;;;;;14.01;100.00;100814.63;4971807;28;20242;-74
2022/07/12 01:19:45;;;;;;;2.40;2.20;;;;;;;14.01;100.00;100811.22;4972871;28;20251;-74
2022/07/12 01:22:15;;;;;;;2.93;2.47;;;;;;;13.99;100.00;100805.31;4977684;28;20230;-74
2022/07/12 01:24:40;;;;;;;2.57;2.37;;;;;;;13.94;100.00;100809.91;4973022;28;20247;-74
2022/07/12 01:27:06;;;;;;;2.47;2.33;;;;;;;13.94;100.00;100810.75;4987462;28;20212;-74
2022/07/12 01:29:32;;;;;;;3.60;2.30;;;;;;;13.91;100.00;100810.94;4971250;28;20168;-74
2022/07/12 01:34:50;;;;;;;3.13;2.83;;;;;;;13.97;100.00;100817.50;4957709;28;20183;-74
2022/07/12 01:37:17;;;;;;;2.80;2.60;;;;;;;13.99;100.00;100811.34;4971233;28;20693;-74
2022/07/12 01:39:44;;;;;;;2.80;2.60;;;;;;;14.00;100.00;100809.56;4972338;28;20511;-74
2022/07/12 01:42:09;;;;;;;2.93;2.67;;;;;;;14.01;100.00;100819.81;4963591;28;20235;-73
2022/07/12 01:44:35;;;;;;;2.37;2.17;;;;;;;13.97;100.00;100812.34;4971342;28;20271;-74
2022/07/12 01:47:01;;;;;;;4.27;2.70;;;;;;;13.94;100.00;100820.25;4971876;28;20234;-75
2022/07/12 01:49:26;;;;;;;2.63;2.43;;;;;;;13.87;100.00;100817.19;4969821;28;20643;-74
2022/07/12 01:51:52;;;;;;;2.87;2.57;;;;;;;13.84;100.00;100818.22;4969641;28;20723;-73
2022/07/12 01:54:17;;;;;;;2.53;2.33;;;;;;;13.78;100.00;100810.81;4966167;28;20250;-73
2022/07/12 01:56:43;;;;;;;3.60;2.40;;;;;;;13.84;100.00;100813.03;4967658;28;20222;-73
2022/07/12 01:59:09;;;;;;;3.00;2.80;;;;;;;13.83;100.00;100813.09;4970706;28;20194;-72
2022/07/12 02:01:37;;;;;;;3.10;2.70;;;;;;;13.79;100.00;100814.22;4963892;28;20234;-73
2022/07/12 02:04:03;;;;;;;3.30;3.00;;;;;;;13.78;100.00;100818.56;4975596;28;20227;-74
2022/07/12 02:06:29;;;;;;;2.80;2.60;;;;;;;13.75;100.00;100810.97;4982282;28;20264;-74
2022/07/12 02:08:55;;;;;;;2.77;2.47;;;;;;;13.68;100.00;100802.72;4968788;28;20222;-75
2022/07/12 02:11:20;;;;;;;2.97;2.67;;;;;;;13.68;100.00;100801.88;4963898;28;20306;-74
2022/07/12 02:13:46;;;;;;;2.80;2.60;;;;;;;13.69;100.00;100804.41;4987115;28;20246;-73
2022/07/12 02:16:11;;;;;;;2.63;2.43;;;;;;;13.63;100.00;100799.56;4970804;28;20269;-74
2022/07/12 02:18:36;;;;;;;5.23;2.70;;;;;;;13.58;100.00;100798.97;4964456;28;20197;-73
2022/07/12 02:21:02;;;;;;;3.43;2.83;;;;;;;13.50;100.00;100796.81;4969526;28;20282;-73
2022/07/12 02:23:28;;;;;;;2.70;2.50;;;;;;;13.50;100.00;100793.41;4987112;28;20195;-73
2022/07/12 02:25:53;;;;;;;2.80;2.60;;;;;;;13.48;100.00;100797.84;4969954;28;20203;-73
2022/07/12 02:28:18;;;;;;;2.47;2.27;;;;;;;13.45;100.00;100809.19;4963435;28;20286;-74
2022/07/12 02:30:44;;;;;;;2.67;2.40;;;;;;;13.40;100.00;100808.59;4961795;28;20219;-74
2022/07/12 02:33:09;;;;;;;2.50;2.30;;;;;;;13.40;100.00;100814.59;4977378;28;20291;-74
2022/07/12 02:35:34;;;;;;;3.10;2.80;;;;;;;13.36;100.00;100812.25;4966386;28;20227;-74
2022/07/12 02:38:00;;;;;;;3.50;2.60;;;;;;;13.35;100.00;100819.16;4971651;28;20188;-73
2022/07/12 02:43:09;;;;;;;2.43;2.23;;;;;;;13.36;100.00;100817.41;4982040;28;20214;-73
2022/07/12 02:45:35;;;;;;;3.73;2.60;;;;;;;13.29;100.00;100813.50;4970639;28;20184;-74
2022/07/12 02:48:00;;;;;;;5.40;2.50;;;;;;;13.30;100.00;100820.34;4971500;28;20196;-74
2022/07/12 02:50:25;;;;;;;2.60;2.40;;;;;;;13.28;100.00;100820.41;4962774;28;20591;-75
2022/07/12 02:52:51;;;;;;;2.60;2.40;;;;;;;13.29;100.00;100829.00;4987001;28;20188;-73
2022/07/12 02:55:16;;;;;;;2.90;2.70;;;;;;;13.35;100.00;100828.66;4970412;28;20286;-73
2022/07/12 02:57:41;;;;;;;3.67;2.83;;;;;;;13.32;100.00;100823.66;4970483;28;20210;-73
2022/07/12 03:00:07;;;;;;;2.90;2.60;;;;;;;13.35;100.00;100826.91;4951592;28;20222;-72
2022/07/12 03:02:33;;;;;;;3.07;2.77;;;;;;;13.28;100.00;100828.16;4986159;28;20215;-73
2022/07/12 03:04:58;;;;;;;3.03;2.80;;;;;;;13.34;100.00;100827.81;4971385;28;20694;-74
2022/07/12 03:07:24;;;;;;;3.47;3.27;;;;;;;13.36;100.00;100825.16;4970420;28;20211;-75
2022/07/12 03:09:49;;;;;;;3.57;3.27;;;;;;;13.34;100.00;100838.16;4965075;28;20189;-75
2022/07/12 03:12:14;;;;;;;3.20;2.50;;;;;;;13.17;100.00;100833.06;4955325;28;20227;-74
2022/07/12 03:14:39;;;;;;;2.80;2.60;;;;;;;13.23;100.00;100843.06;4971656;28;20658;-74
2022/07/12 03:17:05;;;;;;;2.90;2.70;;;;;;;13.20;100.00;100848.41;4962429;28;20228;-73
2022/07/12 03:19:30;;;;;;;2.80;2.53;;;;;;;13.15;100.00;100843.50;4971035;28;20188;-74
2022/07/12 03:21:55;;;;;;;3.73;2.80;;;;;;;13.06;100.00;100843.97;4975778;28;20227;-73
2022/07/12 03:24:21;;;;;;;3.20;2.73;;;;;;;12.99;100.00;100840.88;4972231;28;20550;-73
2022/07/12 03:26:46;;;;;;;3.43;3.13;;;;;;;13.12;100.00;100846.22;4968864;28;20214;-73
2022/07/12 03:29:11;;;;;;;3.17;2.80;;;;;;;13.17;100.00;100852.00;4970928;28;20187;-73
2022/07/12 03:31:37;;;;;;;3.03;2.70;;;;;;;13.20;100.00;100849.25;4950388;28;20262;-74
2022/07/12 03:34:03;;;;;;;3.43;3.13;;;;;;;13.23;100.00;100848.25;4970270;28;20188;-73
2022/07/12 03:36:28;;;;;;;4.20;3.30;;;;;;;13.14;100.00;100841.81;4963735;28;20176;-73
2022/07/12 03:38:54;;;;;;;3.50;3.20;;;;;;;13.18;100.00;100835.56;4968693;28;20197;-74
2022/07/12 03:41:20;;;;;;;3.30;3.00;;;;;;;13.21;100.00;100848.31;4967001;28;20237;-73
2022/07/12 03:43:45;;;;;;;2.77;2.57;;;;;;;13.22;100.00;100847.41;4989175;28;20168;-73
2022/07/12 03:46:11;;;;;;;2.97;2.60;;;;;;;13.22;100.00;100852.59;4970160;28;20288;-73
2022/07/12 03:48:36;;;;;;;3.37;2.90;;;;;;;13.22;100.00;100851.72;4960565;28;20286;-74
2022/07/12 03:51:01;;;;;;;4.20;3.23;;;;;;;13.22;100.00;100850.00;4972048;28;20249;-73
2022/07/12 03:53:27;;;;;;;2.93;2.73;;;;;;;13.29;100.00;100849.66;4973456;28;20191;-73
2022/07/12 03:55:52;;;;;;;5.47;3.33;;;;;;;13.30;100.00;100852.16;4973408;28;20627;-73
2022/07/12 03:58:17;;;;;;;3.40;3.10;;;;;;;13.38;100.00;100856.94;4961465;28;20661;-73
2022/07/12 04:00:43;;;;;;;3.40;3.00;;;;;;;13.36;100.00;100853.59;4965714;28;20231;-72
2022/07/12 04:03:10;;;;;;;3.77;3.20;;;;;;;13.42;100.00;100860.19;4989255;28;20194;-73
2022/07/12 04:05:36;;;;;;;3.57;3.27;;;;;;;13.42;100.00;100865.38;4973029;28;20563;-74
2022/07/12 04:08:02;;;;;;;3.37;3.07;;;;;;;13.49;100.00;100854.59;4974297;28;20208;-73
2022/07/12 04:10:27;;;;;;;2.83;2.63;;;;;;;13.48;100.00;100857.28;4966625;28;20227;-73
2022/07/12 04:12:53;;;;;;;3.23;2.97;;;;;;;13.49;100.00;100861.53;4989226;28;20271;-74
2022/07/12 04:15:18;;;;;;;3.00;2.80;;;;;;;13.52;100.00;100858.75;4972818;28;20537;-79
2022/07/12 04:17:44;;;;;;;5.47;3.57;;;;;;;13.45;100.00;100857.47;4973939;28;20713;-77
2022/07/12 04:20:10;;;;;;;3.23;2.93;;;;;;;13.69;100.00;100853.53;4979229;28;20184;-74
2022/07/12 04:22:35;;;;;;;3.40;2.93;;;;;;;13.83;100.00;100854.47;4975728;28;20213;-75
2022/07/12 04:25:00;;;;;;;4.80;3.40;;;;;;;13.85;100.00;100853.50;4973334;28;20180;-75
2022/07/12 04:27:27;;;;;;;5.67;3.70;;;;;;;13.97;100.00;100862.31;4983392;28;20235;-74
2022/07/12 04:29:52;;;;;;;8.50;4.23;;;;;;;13.97;100.00;100857.13;4987914;28;20225;-71
2022/07/12 04:32:18;;;;;;;6.13;4.53;;;;;;;14.06;100.00;100855.78;4975875;28;20710;-72
2022/07/12 04:34:43;;;;;;;4.40;3.97;;;;;;;14.27;100.00;100852.88;4969562;28;20192;-73
2022/07/12 04:37:09;;;;;;;4.90;4.50;;;;;;;14.20;100.00;100845.47;4964328;28;20192;-73
2022/07/12 04:39:34;;;;;;;5.37;4.83;;;;;;;14.45;100.00;100856.97;4970670;28;20587;-72
2022/07/12 04:42:00;;;;;;;4.87;4.37;;;;;;;14.65;100.00;100855.81;4978344;28;20231;-73
2022/07/12 04:44:25;;;;;;;5.10;4.70;;;;;;;14.88;100.00;100863.97;4969352;28;20528;-74
2022/07/12 04:46:50;;;;;;;5.20;4.70;;;;;;;14.93;100.00;100858.50;4973122;28;20200;-74
2022/07/12 04:49:16;;;;;;;6.53;5.83;;;;;;;14.97;100.00;100862.56;4973450;28;20570;-72
2022/07/12 04:51:41;;;;;;;6.37;5.77;;;;;;;15.09;100.00;100855.81;4976320;28;20226;-73
2022/07/12 04:54:07;;;;;;;6.30;5.80;;;;;;;15.13;100.00;100868.50;4971892;28;20187;-72
2022/07/12 04:56:32;;;;;;;6.63;6.13;;;;;;;15.26;100.00;100865.16;4988487;28;20195;-72
2022/07/12 04:58:58;;;;;;;7.43;6.53;;;;;;;15.29;100.00;100860.63;4973150;28;20180;-72
2022/07/12 05:01:23;;;;;;;8.93;6.87;;;;;;;15.29;100.00;100864.94;4965269;28;20231;-72
2022/07/12 05:03:49;;;;;;;6.67;6.07;;;;;;;15.53;100.00;100878.16;4977920;28;20267;-70
2022/07/12 05:06:14;;;;;;;6.90;6.30;;;;;;;15.70;100.00;100882.25;4971862;28;20666;-71
2022/07/12 05:08:39;;;;;;;8.90;7.57;;;;;;;15.80;100.00;100882.50;4972658;28;20208;-71
2022/07/12 05:11:05;;;;;;;8.97;8.17;;;;;;;15.86;100.00;100889.09;4971166;28;20219;-72
2022/07/12 05:13:30;;;;;;;8.83;7.93;;;;;;;15.94;100.00;100884.25;4971941;28;20319;-71
2022/07/12 05:15:56;;;;;;;9.70;8.70;;;;;;;16.02;100.00;100897.53;4973397;28;20243;-70
2022/07/12 05:18:21;;;;;;;9.37;8.37;;;;;;;16.23;100.00;100897.91;4972938;28;20554;-73
2022/07/12 05:20:47;;;;;;;10.20;9.20;;;;;;;16.11;100.00;100902.16;4967462;28;20231;-70
2022/07/12 05:23:12;;;;;;;9.53;8.67;;;;;;;16.32;100.00;100899.06;4970749;28;20699;-74
2022/07/12 05:25:38;;;;;;;8.47;7.77;;;;;;;16.60;100.00;100903.25;4973083;28;20662;-74
2022/07/12 05:28:03;;;;;;;8.93;8.20;;;;;;;16.92;100.00;100902.84;4972653;28;20674;-74
2022/07/12 05:30:28;;;;;;;10.30;9.20;;;;;;;17.08;100.00;100907.03;4965850;28;20227;-73
2022/07/12 05:32:54;;;;;;;8.80;7.90;;;;;;;16.99;100.00;100911.06;4982163;28;20199;-72
2022/07/12 05:35:19;;;;;;;9.50;8.63;;;;;;;17.11;100.00;100914.59;4962099;28;20543;-71
2022/07/12 05:37:44;;;;;;;9.37;8.43;;;;;;;17.34;100.00;100922.53;4973002;28;20184;-72
2022/07/12 05:40:10;;;;;;;8.73;7.97;;;;;;;17.56;100.00;100919.25;4963219;28;20176;-72
2022/07/12 05:42:36;;;;;;;8.50;7.80;;;;;;;17.61;100.00;100909.34;4986686;28;20183;-72
2022/07/12 05:45:02;;;;;;;8.50;7.70;;;;;;;17.69;100.00;100921.84;4972828;28;20255;-73
2022/07/12 05:47:28;;;;;;;10.87;7.70;;;;;;;17.84;100.00;100919.91;4972639;28;20199;-72
2022/07/12 05:49:53;;;;;;;7.80;7.10;;;;;;;17.86;100.00;100921.44;4972358;28;20188;-73
2022/07/12 05:55:03;;;;;;;8.27;7.23;;;;;;;18.44;99.14;100922.50;4972927;28;20186;-72
2022/07/12 05:57:28;;;;;;;7.40;6.80;;;;;;;18.62;96.96;100930.69;4972799;28;20203;-72
2022/07/12 05:59:54;;;;;;;8.40;7.60;;;;;;;18.99;94.60;100925.31;4971760;28;20744;-72
2022/07/12 06:02:19;;;;;;;8.07;6.60;;;;;;;19.03;92.57;100924.16;4961988;28;20250;-70
2022/07/12 06:04:44;;;;;;;7.53;6.87;;;;;;;18.98;94.99;100926.31;4969970;28;20577;-72
2022/07/12 06:07:10;;;;;;;7.17;6.67;;;;;;;19.45;92.74;100931.34;4972402;28;20207;-72
2022/07/12 06:09:36;;;;;;;7.17;6.63;;;;;;;19.68;89.30;100927.75;4971903;28;20195;-72
2022/07/12 06:12:02;;;;;;;6.77;6.17;;;;;;;20.14;85.54;100931.06;4976931;28;20310;-72
2022/07/12 06:14:27;;;;;;;6.57;5.97;;;;;;;20.37;82.87;100932.72;4987112;28;20184;-72
2022/07/12 06:16:53;;;;;;;6.50;5.90;;;;;;;20.80;78.54;100940.44;4972384;28;20264;-73
2022/07/12 06:19:18;;;;;;;7.73;5.27;;;;;;;21.02;75.66;100940.41;4967353;28;20188;-71
2022/07/12 06:21:43;;;;;;;5.50;4.73;;;;;;;20.85;76.74;100936.59;4967821;28;20631;-72
2022/07/12 06:24:09;;;;;;;5.10;4.53;;;;;;;21.33;73.20;100943.78;4974621;28;20184;-73
2022/07/12 06:26:34;;;;;;;5.77;4.93;;;;;;;21.14;73.37;100941.97;4974684;28;20598;-71
2022/07/12 06:28:59;;;;;;;5.77;4.90;;;;;;;22.74;66.43;100952.28;4973662;28;20202;-69
2022/07/12 06:31:25;;;;;;;4.63;4.23;;;;;;;24.09;58.12;100955.28;4970413;28;20276;-72
2022/07/12 06:33:50;;;;;;;3.93;3.53;;;;;;;25.87;51.20;100951.22;4975737;28;20183;-72
2022/07/12 06:36:16;;;;;;;4.57;3.50;;;;;;;26.51;47.46;100962.94;4971481;28;20192;-71
2022/07/12 06:38:41;;;;;;;3.67;3.25;;;;;;;26.88;45.94;100965.00;4971701;28;20187;-72
2022/07/12 06:41:06;;;;;;;4.05;2.80;;;;;;;27.58;43.55;100970.50;4961357;28;20230;-73
2022/07/12 06:43:31;;;;;;;2.95;2.75;;;;;;;27.34;43.87;100972.25;4977794;28;20190;-72
2022/07/12 06:45:57;;;;;;;8.98;2.75;;;;;;;26.74;44.85;100979.75;4974553;28;20258;-66
2022/07/12 06:48:22;;;;;;;5.68;2.80;;;;;;;26.15;47.65;100974.69;4971646;28;20212;-72
2022/07/12 06:50:47;;;;;;;3.03;2.70;;;;;;;26.52;46.93;100969.84;4969537;28;20226;-72
2022/07/12 06:53:13;;;;;;;4.93;2.67;;;;;;;27.56;43.88;100977.75;4979960;28;20171;-73
2022/07/12 06:55:38;;;;;;;3.20;2.03;;;;;;;27.84;42.65;100972.78;4970198;28;20220;-73
2022/07/12 06:58:04;;;;;;;2.20;1.80;;;;;;;28.76;40.58;100973.66;4985885;28;20248;-71
2022/07/12 07:00:29;;;;;;;3.60;2.10;;;;;;;28.17;40.76;100974.41;4968943;28;20321;-73
2022/07/12 07:02:55;;;;;;;4.25;2.17;;;;;;;27.48;42.34;100969.91;4986427;28;20537;-70
2022/07/12 07:05:20;;;;;;;2.63;2.10;;;;;;;28.43;40.64;100963.41;4980885;28;20679;-67
2022/07/12 07:07:45;;;;;;;3.67;2.20;;;;;;;29.77;38.01;100950.97;4989421;28;20238;-58
2022/07/12 07:10:11;;;;;;;2.03;1.60;;;;;;;29.69;38.08;100961.72;4977750;28;20218;-58
2022/07/12 07:12:36;;;;;;;3.50;1.70;;;;;;;29.85;37.48;100960.66;5002736;28;20187;-59
2022/07/12 07:15:02;;;;;;;3.95;2.05;;;;;;;28.01;39.25;100970.84;4985919;28;20211;-59
2022/07/12 07:17:27;;;;;;;6.20;2.08;;;;;;;29.17;38.18;100967.03;4978737;28;20200;-58
2022/07/12 07:19:53;;;;;;;4.45;1.77;;;;;;;29.86;37.06;100973.72;4967801;28;20180;-59
2022/07/12 07:22:19;;;;;;;2.35;1.67;;;;;;;28.83;38.78;100971.94;4973497;28;20227;-58
2022/07/12 07:24:44;;;;;;;1.70;1.60;;;;;;;28.96;37.94;100967.81;4971971;28;20205;-59
2022/07/12 07:27:09;;;;;;;5.07;1.65;;;;;;;28.97;38.15;100964.16;4981964;28;20203;-59
2022/07/12 07:32:19;;;;;;;2.83;1.60;;;;;;;30.13;35.36;100978.44;4949863;28;20333;-59
2022/07/12 07:34:45;;;;;;;1.67;1.30;;;;;;;29.59;36.69;100978.75;4961509;28;20537;-61
2022/07/12 07:37:10;;;;;;;2.80;1.50;;;;;;;29.51;36.95;100984.19;4975283;28;20207;-60
2022/07/12 07:39:36;;;;;;;4.45;1.80;;;;;;;30.04;35.88;100983.06;4974122;28;20306;-60
2022/07/12 07:42:01;;;;;;;2.08;1.50;;;;;;;30.02;36.11;100985.94;4995435;28;20226;-59
2022/07/12 07:44:27;;;;;;;3.45;1.60;;;;;;;31.97;33.54;100994.84;4990338;28;20623;-59
2022/07/12 07:46:52;;;;;;;7.80;5.88;;;;;;;33.03;30.29;100989.59;4988872;28;20203;-59
2022/07/12 07:49:17;;;;;;;1.92;1.48;;;;;;;33.31;30.14;100999.94;4991209;28;20606;-59
2022/07/12 07:51:42;;;;;;;3.28;1.25;;;;;;;33.21;29.33;100991.56;4991340;28;20350;-59
2022/07/12 07:54:08;;;;;;;2.70;0.90;;;;;;;32.68;30.28;100993.34;4993664;28;20187;-61
2022/07/12 07:56:33;;;;;;;1.45;1.35;;;;;;;33.68;29.12;100993.97;4989974;28;20266;-59
2022/07/12 07:58:58;;;;;;;1.25;1.15;;;;;;;32.27;31.07;100987.28;4989820;28;20179;-60
2022/07/12 08:01:42;;;;;;;1.23;1.05;;;;;;;30.10;35.26;100987.63;4991652;28;20420;-59
2022/07/12 08:04:14;;;;;;;2.05;1.55;;;;;;;31.91;32.24;100975.19;4972439;28;20196;-61
2022/07/12 08:06:40;;;;;;;2.17;1.10;;;;;;;33.60;29.83;100974.53;4989249;28;20306;-60
2022/07/12 08:09:06;;;;;;;1.80;1.30;;;;;;;32.80;29.90;100982.91;4987428;28;20646;-59
2022/07/12 08:11:32;;;;;;;1.10;1.00;;;;;;;33.46;28.65;100967.66;4992397;28;20226;-60
2022/07/12 08:13:57;;;;;;;1.25;1.02;;;;;;;31.15;31.31;100962.97;4979322;28;20618;-65
2022/07/12 08:16:22;;;;;;;1.75;1.05;;;;;;;30.80;32.92;100961.16;4972744;28;20264;-59
2022/07/12 08:18:48;;;;;;;3.95;1.27;;;;;;;31.69;31.79;100954.13;4978230;28;20282;-59
2022/07/12 08:21:13;;;;;;;1.30;1.23;;;;;;;32.31;31.39;100959.25;4964741;28;20354;-59
2022/07/12 08:23:38;;;;;;;1.10;1.00;;;;;;;33.59;27.79;100956.06;4965028;28;20185;-60
2022/07/12 08:26:04;;;;;;;0.70;0.70;;;;;;;33.95;27.58;100962.59;4975528;28;20661;-59
2022/07/12 08:28:29;;;;;;;1.50;1.40;;;;;;;30.15;32.95;100957.88;4975516;28;20222;-59
2022/07/12 08:30:55;;;;;;;2.55;1.13;;;;;;;30.19;33.36;100954.66;4973122;28;20251;-61
2022/07/12 08:33:21;;;;;;;1.58;1.00;;;;;;;31.12;31.81;100953.53;4969189;28;20295;-59
2022/07/12 08:35:46;;;;;;;3.28;1.08;;;;;;;31.44;31.52;100956.50;4975266;28;20673;-60
2022/07/12 08:38:12;;;;;;;5.10;1.60;;;;;;;32.11;30.44;100969.88;4978823;28;20234;-60
2022/07/12 08:40:37;;;;;;;2.15;1.20;;;;;;;31.39;30.89;100965.09;4983305;28;20586;-60
2022/07/12 08:43:02;;;;;;;1.33;1.20;;;;;;;31.32;31.90;100974.03;4987887;28;20198;-58
2022/07/12 08:45:28;;;;;;;2.03;1.17;;;;;;;29.95;33.47;100977.91;4977259;28;20235;-58
2022/07/12 08:47:53;;;;;;;2.00;1.05;;;;;;;29.22;35.01;100983.19;4983121;28;20199;-60
2022/07/12 08:50:22;;;;;;;1.10;1.10;;;;;;;29.42;35.13;100982.66;4969856;28;20832;-59
2022/07/12 08:52:50;;;;;;;1.60;1.05;;;;;;;29.25;35.40;100987.31;4989015;28;20266;-58
2022/07/12 08:55:23;;;;;;;1.30;1.20;;;;;;;28.49;36.89;100988.31;4978364;28;20186;-59
2022/07/12 08:57:50;;;;;;;1.27;0.93;;;;;;;28.12;38.16;100985.50;4974068;28;20185;-58
2022/07/12 09:00:16;;;;;;;1.05;0.95;;;;;;;29.94;34.19;100970.97;4964840;28;20259;-58
2022/07/12 09:02:57;;;;;;;1.08;0.98;;;;;;;32.05;30.52;100975.19;4992088;28;20196;-58
2022/07/12 09:05:25;;;;;;;2.00;0.88;;;;;;;34.39;28.33;100973.31;4973437;28;20226;-59
2022/07/12 09:07:51;;;;;;;2.03;1.00;;;;;;;34.67;27.73;100974.63;4969464;28;20295;-59
2022/07/12 09:10:17;;;;;;;2.85;1.00;;;;;;;33.30;28.12;100967.13;4965969;28;20678;-59
2022/07/12 09:12:43;;;;;;;1.20;0.90;;;;;;;34.19;27.21;100966.28;4979731;28;20185;-59
2022/07/12 09:15:17;;;;;;;1.05;0.90;;;;;;;35.45;25.64;100964.22;4971038;28;20282;-59
2022/07/12 09:17:59;;;;;;;0.80;0.80;;;;;;;35.65;24.32;100967.41;4974635;28;20187;-58
2022/07/12 09:20:28;;;;;;;2.33;1.00;;;;;;;33.12;27.54;100972.31;4966753;28;20246;-58
2022/07/12 09:22:56;;;;;;;1.42;0.93;;;;;;;33.49;27.28;100969.88;4971842;28;20310;-57
2022/07/12 09:25:22;;;;;;;1.15;1.05;;;;;;;34.47;25.72;100962.31;4973227;28;20189;-58
2022/07/12 09:27:56;;;;;;;2.03;1.08;;;;;;;33.34;27.31;100954.19;4974144;28;20203;-58
2022/07/12 09:30:23;;;;;;;2.08;0.90;;;;;;;35.20;25.10;100963.31;4964256;28;20195;-58
2022/07/12 09:38:18;;;;;;;4.20;0.88;;;;;;;35.78;24.23;100963.69;4972438;28;20327;-59
2022/07/12 09:40:44;;;;;;;0.95;0.70;;;;;;;36.80;23.55;100961.69;4967244;28;20318;-58
2022/07/12 09:43:11;;;;;;;5.40;0.70;;;;;;;36.08;24.03;100957.44;4982758;28;21028;-58
2022/07/12 09:45:39;;;;;;;0.90;0.90;;;;;;;36.21;23.86;100966.28;4971066;28;20254;-58
2022/07/12 09:48:05;;;;;;;1.23;0.80;;;;;;;36.44;23.75;100963.59;4970749;28;20251;-60
2022/07/12 09:50:35;;;;;;;3.35;0.88;;;;;;;36.73;22.70;100963.69;4969747;28;20565;-59
2022/07/12 09:53:03;;;;;;;2.17;0.90;;;;;;;33.73;26.48;100959.47;4971996;28;20191;-58
2022/07/12 09:55:32;;;;;;;1.33;1.23;;;;;;;32.03;29.28;100948.81;4970901;28;20243;-58
2022/07/12 09:58:01;;;;;;;2.03;0.80;;;;;;;31.30;30.33;100950.34;4972684;28;20180;-59
2022/07/12 10:00:27;;;;;;;0.90;0.90;;;;;;;33.94;27.20;100951.09;4960260;28;20289;-58
2022/07/12 10:02:55;;;;;;;1.10;1.00;;;;;;;35.51;24.61;100950.75;4971296;28;20199;-60
2022/07/12 10:05:23;;;;;;;2.95;0.80;;;;;;;33.96;26.03;100950.88;4973127;28;20227;-59
2022/07/12 10:07:49;;;;;;;1.00;0.90;;;;;;;31.59;29.90;100947.53;4982682;28;20301;-59
2022/07/12 10:10:17;;;;;;;2.90;1.02;;;;;;;32.92;28.10;100946.59;4955327;28;20590;-59
2022/07/12 10:12:44;;;;;;;1.40;1.10;;;;;;;33.28;26.97;100944.34;4994148;28;20218;-57
2022/07/12 10:15:15;;;;;;;2.05;0.95;;;;;;;36.13;24.20;100944.16;4987768;28;20263;-58
2022/07/12 10:17:50;;;;;;;2.15;1.08;;;;;;;35.74;23.33;100951.00;4988020;28;20243;-59
2022/07/12 10:20:22;;;;;;;0.68;0.68;;;;;;;34.74;24.59;100949.50;4978457;28;20190;-60
2022/07/12 10:22:47;;;;;;;8.57;0.95;;;;;;;35.34;24.34;100945.22;4984040;28;20270;-60
2022/07/12 10:25:25;;;;;;;4.47;1.02;;;;;;;36.43;23.37;100953.97;4977684;28;20215;-57
2022/07/12 10:27:50;;;;;;;1.42;0.80;;;;;;;35.19;24.30;100956.34;4978597;28;20212;-59
2022/07/12 10:30:23;;;;;;;1.88;1.05;;;;;;;36.89;23.31;100961.31;4974529;28;20238;-59
2022/07/12 10:32:52;;;;;;;1.08;0.90;;;;;;;34.48;25.01;100958.63;4975132;28;20254;-59
2022/07/12 10:35:20;;;;;;;1.80;0.70;;;;;;;32.51;28.13;100964.53;4959693;28;20188;-58
2022/07/12 10:38:15;;;;;;;2.67;0.93;;;;;;;29.86;31.53;100960.47;4987109;28;20200;-59
2022/07/12 10:40:44;;;;;;;0.80;0.80;;;;;;;28.59;34.06;100958.94;4957636;28;20234;-59
2022/07/12 10:43:09;;;;;;;1.98;1.15;;;;;;;28.05;34.24;100954.66;4966587;28;20203;-58
2022/07/12 10:45:42;;;;;;;0.73;0.73;;;;;;;26.86;36.44;100945.06;4982289;28;20191;-58
2022/07/12 10:48:09;;;;;;;1.45;1.08;;;;;;;27.22;36.57;100942.75;4983710;28;20293;-57
2022/07/12 10:50:57;;;;;;;4.32;0.98;;;;;;;26.58;38.20;100946.28;4963491;28;20263;-57
2022/07/12 10:53:25;;;;;;;1.20;1.10;;;;;;;26.86;36.61;100937.97;4977152;28;20271;-58
2022/07/12 10:56:15;;;;;;;1.33;1.08;;;;;;;26.57;38.03;100949.09;4997067;28;20191;-58
2022/07/12 10:59:01;;;;;;;2.10;1.20;;;;;;;26.73;37.79;100938.47;4974079;28;20251;-57
2022/07/12 11:01:31;;;;;;;2.63;0.93;;;;;;;26.91;39.23;100937.44;4975541;28;20349;-58
2022/07/12 11:04:06;;;;;;;3.10;1.10;;;;;;;26.34;38.26;100935.78;4965355;28;20268;-57
2022/07/12 11:06:34;;;;;;;0.90;0.90;;;;;;;26.30;38.64;100934.47;4977998;28;20653;-56
2022/07/12 11:09:02;;;;;;;3.97;1.00;;;;;;;26.07;39.21;100925.41;4971920;28;20742;-58
2022/07/12 11:11:30;;;;;;;2.05;1.00;;;;;;;25.76;39.63;100936.56;4978109;28;20302;-57
2022/07/12 11:13:57;;;;;;;1.10;1.00;;;;;;;25.52;39.48;100932.09;4979437;28;20216;-57
2022/07/12 11:16:24;;;;;;;1.13;0.90;;;;;;;25.62;39.74;100926.66;4971698;28;20307;-57
2022/07/12 11:18:51;;;;;;;2.10;0.80;;;;;;;25.65;39.78;100925.53;4997017;28;20199;-57
2022/07/12 11:21:16;;;;;;;1.05;0.93;;;;;;;25.84;38.66;100921.75;4965467;28;20323;-57
2022/07/12 11:23:44;;;;;;;1.65;1.08;;;;;;;25.94;38.98;100925.88;4965360;28;20203;-57
2022/07/12 11:26:12;;;;;;;3.13;0.90;;;;;;;26.01;40.20;100919.94;4972284;28;20617;-57
2022/07/12 11:28:41;;;;;;;2.22;1.02;;;;;;;26.40;39.39;100919.28;4974028;28;20242;-57
2022/07/12 11:31:11;;;;;;;0.70;0.70;;;;;;;26.40;38.29;100916.63;4950422;28;20299;-57
2022/07/12 11:33:39;;;;;;;3.58;1.00;;;;;;;26.21;39.17;100915.16;4965237;28;20193;-56
2022/07/12 11:36:07;;;;;;;2.08;1.20;;;;;;;26.49;38.82;100907.69;4968957;28;20199;-57